Time;durP1;ratioP1;P1;durP2;ratioP2;P2;SDS_P1;SDS_P2;PMS_P1;PMS_P2;Temp;Humidity;BMP_temperature;BMP_pressure;BME280_temperature;BME280_humidity;BME280_pressure;Samples;Min_cycle;Max_cycle;Signal;HPM_P1;HPM_P2
2021/10/29 00:01:31;;;;;;;5.28;3.55;;;13.90;66.10;;;;;;5030861;28;20034;-86
2021/10/29 00:03:57;;;;;;;6.38;3.88;;;13.90;66.10;;;;;;5024750;28;20415;-84
2021/10/29 00:06:23;;;;;;;5.75;3.85;;;13.90;66.20;;;;;;5024871;28;21331;-81
2021/10/29 00:08:49;;;;;;;6.80;3.38;;;13.90;66.20;;;;;;5011477;28;20124;-83
2021/10/29 00:11:15;;;;;;;6.72;3.55;;;13.80;66.30;;;;;;5025139;28;20065;-83
2021/10/29 00:13:41;;;;;;;6.40;3.20;;;13.80;66.40;;;;;;5023464;28;20044;-83
2021/10/29 00:16:07;;;;;;;6.65;3.88;;;13.80;66.50;;;;;;5006627;28;20042;-82
2021/10/29 00:18:33;;;;;;;6.65;3.80;;;13.80;66.60;;;;;;5025569;28;20034;-85
2021/10/29 00:20:59;;;;;;;7.25;3.25;;;13.80;66.60;;;;;;5024520;28;20145;-83
2021/10/29 00:23:27;;;;;;;6.80;3.70;;;13.80;66.70;;;;;;5024195;28;20058;-81
2021/10/29 00:25:53;;;;;;;7.15;4.28;;;13.80;66.80;;;;;;5024987;28;20041;-84
2021/10/29 00:28:19;;;;;;;6.80;3.92;;;13.80;66.90;;;;;;5027198;28;20029;-83
2021/10/29 00:30:45;;;;;;;7.20;4.18;;;13.80;67.00;;;;;;5006402;28;20065;-84
2021/10/29 00:33:11;;;;;;;7.78;4.32;;;13.80;67.00;;;;;;5023526;28;20052;-81
2021/10/29 00:35:37;;;;;;;8.27;4.13;;;13.80;67.10;;;;;;5023691;28;20037;-85
2021/10/29 00:38:03;;;;;;;5.22;3.75;;;13.80;67.20;;;;;;5011028;28;20038;-83
2021/10/29 00:40:29;;;;;;;6.63;3.72;;;13.80;67.10;;;;;;5025165;28;20095;-87
2021/10/29 00:42:55;;;;;;;7.47;3.80;;;13.80;67.10;;;;;;5027467;28;20149;-85
2021/10/29 00:45:21;;;;;;;7.38;4.07;;;13.80;67.20;;;;;;5028662;28;20091;-85
2021/10/29 00:47:50;;;;;;;9.05;4.05;;;13.80;67.10;;;;;;5035962;28;20037;-83
2021/10/29 00:50:17;;;;;;;6.22;3.97;;;13.80;67.20;;;;;;5032466;28;20095;-84
2021/10/29 00:52:43;;;;;;;5.53;3.63;;;13.80;67.20;;;;;;5029064;28;20038;-82
2021/10/29 00:55:09;;;;;;;6.45;4.25;;;13.70;67.20;;;;;;5030445;28;20148;-84
2021/10/29 00:57:37;;;;;;;6.70;3.85;;;13.70;67.20;;;;;;5036439;28;20052;-84
2021/10/29 01:00:04;;;;;;;7.13;3.63;;;13.70;67.30;;;;;;5028805;28;20049;-83
2021/10/29 01:02:30;;;;;;;7.65;3.78;;;13.70;67.40;;;;;;5023417;28;20165;-84
2021/10/29 01:04:56;;;;;;;5.93;3.25;;;13.70;67.40;;;;;;5024749;28;20064;-84
2021/10/29 01:07:23;;;;;;;7.25;4.00;;;13.70;67.50;;;;;;5032147;28;20041;-83
2021/10/29 01:09:49;;;;;;;7.72;4.20;;;13.70;67.50;;;;;;5011778;28;20060;-85
2021/10/29 01:12:15;;;;;;;5.50;3.58;;;13.70;67.50;;;;;;5024237;28;20457;-83
2021/10/29 01:14:40;;;;;;;5.38;3.75;;;13.70;67.50;;;;;;5023514;28;20543;-83
2021/10/29 01:17:07;;;;;;;5.18;3.45;;;13.70;67.50;;;;;;5023407;28;20045;-85
2021/10/29 01:19:33;;;;;;;5.25;3.25;;;13.70;67.40;;;;;;5008303;28;20029;-84
2021/10/29 01:22:03;;;;;;;5.32;3.90;;;13.70;67.40;;;;;;5023786;28;20119;-82
2021/10/29 01:24:29;;;;;;;6.63;4.00;;;13.70;67.40;;;;;;5022544;28;20061;-85
2021/10/29 01:26:55;;;;;;;7.18;3.83;;;13.70;67.40;;;;;;5025399;28;20120;-85
2021/10/29 01:29:21;;;;;;;6.18;3.55;;;13.60;67.30;;;;;;5002309;28;20036;-85
2021/10/29 01:31:48;;;;;;;6.20;3.67;;;13.70;67.30;;;;;;4992693;28;20463;-85
2021/10/29 01:34:14;;;;;;;6.63;3.90;;;13.60;67.30;;;;;;5006577;28;20021;-85
2021/10/29 01:36:40;;;;;;;6.00;3.85;;;13.60;67.20;;;;;;5021883;28;20057;-83
2021/10/29 01:39:06;;;;;;;6.72;3.90;;;13.60;67.30;;;;;;4991310;28;20455;-85
2021/10/29 01:41:32;;;;;;;5.97;4.15;;;13.60;67.30;;;;;;5004348;28;20048;-85
2021/10/29 01:44:02;;;;;;;6.20;3.67;;;13.60;67.30;;;;;;5024871;28;20150;-85
2021/10/29 01:46:29;;;;;;;5.60;4.07;;;13.60;67.30;;;;;;5022513;28;20034;-85
2021/10/29 01:48:55;;;;;;;5.60;3.47;;;13.60;67.30;;;;;;5022841;28;20098;-84
2021/10/29 01:51:21;;;;;;;8.95;4.43;;;13.60;67.30;;;;;;5006017;28;20034;-83
2021/10/29 01:53:47;;;;;;;5.43;3.67;;;13.60;67.20;;;;;;5013303;28;20049;-84
2021/10/29 01:56:12;;;;;;;6.88;4.00;;;13.60;67.70;;;;;;5008738;28;20476;-85
2021/10/29 01:58:39;;;;;;;5.22;3.70;;;13.60;67.00;;;;;;5023148;28;20048;-83
2021/10/29 02:01:05;;;;;;;5.65;3.53;;;13.60;67.10;;;;;;5022848;28;20048;-85
2021/10/29 02:03:33;;;;;;;7.03;3.83;;;13.60;67.00;;;;;;5008963;28;20052;-86
2021/10/29 02:06:00;;;;;;;5.50;3.20;;;13.60;67.10;;;;;;5021380;28;20132;-86
2021/10/29 02:08:27;;;;;;;6.72;3.63;;;13.60;67.20;;;;;;5022507;28;20029;-86
2021/10/29 02:10:53;;;;;;;6.82;3.40;;;13.60;67.30;;;;;;5020541;28;20029;-86
2021/10/29 02:13:21;;;;;;;6.15;3.40;;;13.60;67.30;;;;;;5022714;28;20033;-84
2021/10/29 02:15:48;;;;;;;6.13;3.58;;;13.60;67.40;;;;;;5022369;28;20037;-83
2021/10/29 02:18:14;;;;;;;7.70;3.95;;;13.60;67.30;;;;;;5020811;28;20029;-86
2021/10/29 02:20:41;;;;;;;7.07;4.38;;;13.60;67.40;;;;;;5004838;28;20500;-86
2021/10/29 02:23:07;;;;;;;6.88;3.95;;;13.60;67.40;;;;;;5007363;28;20050;-84
2021/10/29 02:25:33;;;;;;;6.78;4.10;;;13.60;67.40;;;;;;5026221;28;20488;-86
2021/10/29 02:27:59;;;;;;;6.32;3.80;;;13.60;67.50;;;;;;5023515;28;20045;-82
2021/10/29 02:30:25;;;;;;;5.80;3.80;;;13.60;67.40;;;;;;5023176;28;20480;-84
2021/10/29 02:32:51;;;;;;;7.45;4.15;;;13.60;67.40;;;;;;5026554;28;20041;-83
2021/10/29 02:35:16;;;;;;;5.45;3.58;;;13.60;67.40;;;;;;5004341;28;20041;-83
2021/10/29 02:37:42;;;;;;;8.75;4.82;;;13.60;67.30;;;;;;5022265;28;20133;-84
2021/10/29 02:40:09;;;;;;;6.65;3.78;;;13.60;67.30;;;;;;5020784;28;20040;-83
2021/10/29 02:42:35;;;;;;;5.68;3.95;;;13.60;67.20;;;;;;5023096;28;20030;-85
2021/10/29 02:45:01;;;;;;;6.15;4.00;;;13.60;67.20;;;;;;5005210;28;20037;-86
2021/10/29 02:47:27;;;;;;;6.15;3.97;;;13.60;67.10;;;;;;5022441;28;20172;-85
2021/10/29 02:49:53;;;;;;;6.45;3.78;;;13.60;67.10;;;;;;5020630;28;20030;-86
2021/10/29 02:52:19;;;;;;;5.82;3.75;;;13.60;67.10;;;;;;5010327;28;20033;-82
2021/10/29 02:54:44;;;;;;;6.55;3.97;;;13.50;67.10;;;;;;5025223;28;20057;-84
2021/10/29 02:57:11;;;;;;;5.68;3.80;;;13.50;67.00;;;;;;5030203;28;20396;-86
2021/10/29 02:59:37;;;;;;;7.95;3.70;;;13.50;67.00;;;;;;5027443;28;20048;-83
2021/10/29 03:02:03;;;;;;;7.47;3.78;;;13.50;67.00;;;;;;4997338;28;20878;-83
2021/10/29 03:04:30;;;;;;;5.15;3.55;;;13.60;67.00;;;;;;5011998;28;20054;-84
2021/10/29 03:06:56;;;;;;;6.00;3.47;;;13.50;67.00;;;;;;5020889;28;20025;-84
2021/10/29 03:09:22;;;;;;;6.93;3.72;;;13.50;67.00;;;;;;5024394;28;20044;-84
2021/10/29 03:11:48;;;;;;;5.45;3.55;;;13.50;67.00;;;;;;5025051;28;20041;-84
2021/10/29 03:14:14;;;;;;;7.57;3.47;;;13.50;67.00;;;;;;5023366;28;20029;-84
2021/10/29 03:16:40;;;;;;;7.03;3.88;;;13.50;67.00;;;;;;5023486;28;20034;-82
2021/10/29 03:19:06;;;;;;;5.53;3.95;;;13.50;67.00;;;;;;5023912;28;20037;-85
2021/10/29 03:21:32;;;;;;;6.47;3.67;;;13.50;67.00;;;;;;5023836;28;20123;-83
2021/10/29 03:23:58;;;;;;;7.20;3.80;;;13.50;66.90;;;;;;5026622;28;20061;-84
2021/10/29 03:26:24;;;;;;;9.13;4.18;;;13.50;67.00;;;;;;5008535;28;20033;-83
2021/10/29 03:28:50;;;;;;;6.25;3.53;;;13.50;67.00;;;;;;5008531;28;20040;-84
2021/10/29 03:31:16;;;;;;;6.05;3.72;;;13.50;67.10;;;;;;5026292;28;20064;-85
2021/10/29 03:33:42;;;;;;;9.35;3.85;;;13.50;67.00;;;;;;5026555;28;20076;-85
2021/10/29 03:36:08;;;;;;;8.23;4.03;;;13.50;67.10;;;;;;5024287;28;20042;-84
2021/10/29 03:41:22;;;;;;;7.88;4.28;;;13.50;67.00;;;;;;5026681;28;20091;-84
2021/10/29 03:46:44;;;;;;;5.90;3.25;;;13.50;67.00;;;;;;5005219;28;20114;-83
2021/10/29 03:50:02;;;;;;;6.63;3.88;;;13.50;67.00;;;;;;5022633;28;20034;-85
2021/10/29 03:52:02;;;;;;;;;;;13.50;66.90;;;;;;5010795;28;20037;-85
2021/10/29 03:54:32;;;;;;;5.63;3.42;;;13.50;66.80;;;;;;5008178;28;19929;-82
2021/10/29 03:57:11;;;;;;;7.15;3.72;;;13.50;66.70;;;;;;5004338;28;20065;-86
2021/10/29 03:59:37;;;;;;;5.60;4.15;;;13.50;66.60;;;;;;5004917;28;20038;-85
2021/10/29 04:02:06;;;;;;;9.68;4.07;;;13.50;66.60;;;;;;5005952;28;20068;-84
2021/10/29 04:04:33;;;;;;;7.00;3.67;;;13.50;66.50;;;;;;5003638;28;20516;-84
2021/10/29 04:06:59;;;;;;;6.07;3.40;;;13.50;66.40;;;;;;5002837;28;20033;-85
2021/10/29 04:09:25;;;;;;;7.68;4.03;;;13.50;66.40;;;;;;5021746;28;20516;-87
2021/10/29 04:11:51;;;;;;;9.10;4.05;;;13.50;66.30;;;;;;4987303;28;20461;-84
2021/10/29 04:14:21;;;;;;;6.18;4.18;;;13.50;66.10;;;;;;5005365;28;20069;-86
2021/10/29 04:16:47;;;;;;;10.52;4.25;;;13.50;65.90;;;;;;5008558;28;20049;-82
2021/10/29 04:19:14;;;;;;;9.70;4.82;;;13.50;65.70;;;;;;5006944;28;20037;-86
2021/10/29 04:21:40;;;;;;;6.85;4.70;;;13.50;65.50;;;;;;5008154;28;20041;-84
2021/10/29 04:24:07;;;;;;;7.22;4.82;;;13.50;65.40;;;;;;5008516;28;20034;-86
2021/10/29 04:26:34;;;;;;;7.97;5.40;;;13.50;65.20;;;;;;5007417;28;20034;-87
2021/10/29 04:29:02;;;;;;;9.15;5.47;;;13.50;65.00;;;;;;5004461;28;20026;-81
2021/10/29 04:31:30;;;;;;;9.82;5.72;;;13.50;64.80;;;;;;5004393;28;20045;-84
2021/10/29 04:33:56;;;;;;;7.68;5.30;;;13.50;64.60;;;;;;5005704;28;20045;-84
2021/10/29 04:36:23;;;;;;;11.00;6.15;;;13.50;64.50;;;;;;5002215;28;20417;-84
2021/10/29 04:38:50;;;;;;;9.25;5.50;;;13.50;64.30;;;;;;5001785;28;21427;-84
2021/10/29 04:41:16;;;;;;;8.88;5.13;;;13.50;64.20;;;;;;5003942;28;20030;-84
2021/10/29 04:43:43;;;;;;;10.60;5.82;;;13.50;63.90;;;;;;5002754;28;20357;-83
2021/10/29 04:46:09;;;;;;;9.55;5.72;;;13.50;63.90;;;;;;5005674;28;20358;-83
2021/10/29 04:48:36;;;;;;;9.77;6.22;;;13.50;63.80;;;;;;5003454;28;20030;-83
2021/10/29 04:51:02;;;;;;;11.35;6.60;;;13.50;63.70;;;;;;5001947;28;20041;-83
2021/10/29 04:53:28;;;;;;;10.68;6.32;;;13.50;63.60;;;;;;5004449;28;20496;-84
2021/10/29 04:55:54;;;;;;;10.98;6.78;;;13.50;63.50;;;;;;5023363;28;20388;-85
2021/10/29 04:58:20;;;;;;;9.07;6.43;;;13.50;63.50;;;;;;5022979;28;20033;-81
2021/10/29 05:00:47;;;;;;;10.80;6.90;;;13.40;63.40;;;;;;5021514;28;20380;-83
2021/10/29 05:03:13;;;;;;;11.60;7.25;;;13.50;63.40;;;;;;5022118;28;20571;-82
2021/10/29 05:05:39;;;;;;;14.32;7.20;;;13.40;63.30;;;;;;5023241;28;20108;-82
2021/10/29 05:08:06;;;;;;;11.23;7.53;;;13.40;63.40;;;;;;5022393;28;20149;-82
2021/10/29 05:10:32;;;;;;;14.00;8.00;;;13.40;63.40;;;;;;5022414;28;20041;-83
2021/10/29 05:12:59;;;;;;;13.00;7.25;;;13.40;63.30;;;;;;5023591;28;20116;-83
2021/10/29 05:15:26;;;;;;;12.93;7.70;;;13.40;63.40;;;;;;5023503;28;20464;-83
2021/10/29 05:17:54;;;;;;;12.18;7.78;;;13.50;63.30;;;;;;5022721;28;20038;-83
2021/10/29 05:20:20;;;;;;;11.48;7.35;;;13.40;63.30;;;;;;5009452;28;20033;-81
2021/10/29 05:22:46;;;;;;;10.45;7.45;;;13.40;63.30;;;;;;5024049;28;20036;-82
2021/10/29 05:25:12;;;;;;;15.52;8.60;;;13.40;63.20;;;;;;5022473;28;20053;-82
2021/10/29 05:27:38;;;;;;;12.00;7.65;;;13.40;63.20;;;;;;5022543;28;20037;-83
2021/10/29 05:30:06;;;;;;;14.35;8.15;;;13.40;63.10;;;;;;5025330;28;20034;-82
2021/10/29 05:32:32;;;;;;;14.80;7.70;;;13.50;63.20;;;;;;5021813;28;20061;-83
2021/10/29 05:35:00;;;;;;;13.30;8.15;;;13.50;63.10;;;;;;5022314;28;20464;-82
2021/10/29 05:37:31;;;;;;;10.80;7.75;;;13.50;63.00;;;;;;5006113;28;20068;-83
2021/10/29 05:39:57;;;;;;;11.73;7.65;;;13.50;62.90;;;;;;5022230;28;20380;-81
2021/10/29 05:42:27;;;;;;;12.40;8.18;;;13.50;63.10;;;;;;5023403;28;20810;-80
2021/10/29 05:44:53;;;;;;;14.45;8.43;;;13.50;63.00;;;;;;5023315;28;20376;-81
2021/10/29 05:47:20;;;;;;;14.77;8.90;;;13.50;62.80;;;;;;5021688;28;20037;-80
2021/10/29 05:49:46;;;;;;;12.73;7.53;;;13.50;62.70;;;;;;5022246;28;20214;-81
2021/10/29 05:52:17;;;;;;;12.27;8.30;;;13.50;62.80;;;;;;5025366;28;20514;-83
2021/10/29 05:57:27;;;;;;;11.55;7.88;;;13.60;62.70;;;;;;5021963;28;20045;-83
2021/10/29 05:59:53;;;;;;;10.70;8.18;;;13.50;62.60;;;;;;5021574;28;20038;-82
2021/10/29 06:02:20;;;;;;;12.23;8.32;;;13.50;62.60;;;;;;5022089;28;20044;-81
2021/10/29 06:04:47;;;;;;;11.05;7.78;;;13.50;62.60;;;;;;5024167;28;20029;-83
2021/10/29 06:07:13;;;;;;;12.52;7.85;;;13.50;62.70;;;;;;5022495;28;20558;-82
2021/10/29 06:09:39;;;;;;;11.68;8.18;;;13.50;62.80;;;;;;5008878;28;20030;-83
2021/10/29 06:12:05;;;;;;;10.35;7.80;;;13.50;62.80;;;;;;5004912;28;20365;-83
2021/10/29 06:14:31;;;;;;;12.73;7.90;;;13.50;62.70;;;;;;5021831;28;20040;-84
2021/10/29 06:16:58;;;;;;;12.40;8.20;;;13.50;62.70;;;;;;5024474;28;20026;-83
2021/10/29 06:19:25;;;;;;;12.05;8.20;;;13.50;62.80;;;;;;5021643;28;20037;-82
2021/10/29 06:24:17;;;;;;;11.02;7.43;;;13.50;62.70;;;;;;5021987;28;20037;-81
2021/10/29 06:29:10;;;;;;;10.40;7.82;;;13.60;62.60;;;;;;5020238;28;20033;-82
2021/10/29 06:31:36;;;;;;;11.57;7.25;;;13.60;62.60;;;;;;5023022;28;20034;-80
2021/10/29 06:34:02;;;;;;;10.75;7.07;;;13.60;62.50;;;;;;5020001;28;20535;-82
2021/10/29 06:36:28;;;;;;;10.48;7.63;;;13.60;62.50;;;;;;5023181;28;20500;-82
2021/10/29 06:38:57;;;;;;;10.63;6.85;;;13.60;62.50;;;;;;5021600;28;20539;-83
2021/10/29 06:41:23;;;;;;;11.05;7.75;;;13.60;62.60;;;;;;5021529;28;20029;-83
2021/10/29 06:44:03;;;;;;;10.32;6.88;;;13.60;62.50;;;;;;5004582;28;20041;-83
2021/10/29 06:59:30;;;;;;;9.50;6.70;;;13.70;62.30;;;;;;5019426;28;20563;-87
2021/10/29 07:40:19;;;;;;;7.55;3.60;;;14.30;65.70;;;;;;5019020;28;20051;-81
2021/10/29 07:45:18;;;;;;;7.15;3.58;;;14.40;65.60;;;;;;5023879;28;20033;-80
2021/10/29 07:47:45;;;;;;;5.80;3.92;;;14.50;66.30;;;;;;5023541;28;20025;-80
2021/10/29 07:50:14;;;;;;;4.95;3.65;;;14.50;65.60;;;;;;5024096;28;20041;-80
2021/10/29 07:52:41;;;;;;;5.60;3.40;;;14.60;65.50;;;;;;5026392;28;20101;-81
2021/10/29 07:55:09;;;;;;;4.90;3.60;;;14.70;65.60;;;;;;5026989;28;20523;-81
2021/10/29 07:57:36;;;;;;;4.75;2.92;;;14.60;65.50;;;;;;5024083;28;20129;-81
2021/10/29 08:00:05;;;;;;;6.00;3.55;;;14.70;65.60;;;;;;5024175;28;20037;-83
2021/10/29 08:02:32;;;;;;;6.88;3.67;;;14.70;65.60;;;;;;5024060;28;20156;-81
2021/10/29 08:04:58;;;;;;;5.00;3.50;;;14.70;65.60;;;;;;5024806;28;20463;-80
2021/10/29 08:07:26;;;;;;;4.22;3.13;;;14.70;65.50;;;;;;5006301;28;20056;-80
2021/10/29 08:09:52;;;;;;;5.60;4.03;;;14.80;65.40;;;;;;5022792;28;20121;-80
2021/10/29 08:12:19;;;;;;;5.57;3.50;;;14.80;65.40;;;;;;5025213;28;20148;-81
2021/10/29 08:14:49;;;;;;;7.95;3.63;;;14.80;65.50;;;;;;5026086;28;20507;-81
2021/10/29 08:17:16;;;;;;;4.25;3.33;;;14.80;65.50;;;;;;5023901;28;20033;-81
2021/10/29 08:19:43;;;;;;;7.78;3.45;;;14.80;65.50;;;;;;4992673;28;20552;-82
2021/10/29 08:22:09;;;;;;;3.90;3.20;;;14.80;65.60;;;;;;5026037;28;20034;-82
2021/10/29 08:24:37;;;;;;;6.47;3.58;;;14.80;65.60;;;;;;5024230;28;20041;-82
2021/10/29 08:27:04;;;;;;;5.03;3.50;;;14.90;65.70;;;;;;5024164;28;20033;-83
2021/10/29 08:29:30;;;;;;;5.10;3.58;;;14.90;65.70;;;;;;5022892;28;20034;-83
2021/10/29 08:31:56;;;;;;;5.32;3.55;;;14.90;66.00;;;;;;5023264;28;20040;-83
2021/10/29 08:34:27;;;;;;;4.00;3.15;;;14.90;66.00;;;;;;5026321;28;20057;-83
2021/10/29 08:36:57;;;;;;;9.57;3.28;;;14.90;66.00;;;;;;5023487;28;20037;-82
2021/10/29 08:39:28;;;;;;;3.65;3.25;;;15.00;66.10;;;;;;5023288;28;20503;-82
2021/10/29 08:41:55;;;;;;;8.98;3.80;;;15.00;66.30;;;;;;5010271;28;20158;-83
2021/10/29 08:44:22;;;;;;;8.95;3.33;;;15.00;66.50;;;;;;5022523;28;20494;-83
2021/10/29 08:46:48;;;;;;;4.88;3.45;;;15.00;66.50;;;;;;5032360;28;20031;-84
2021/10/29 08:49:15;;;;;;;5.38;3.60;;;15.00;66.50;;;;;;5034369;28;20037;-83
2021/10/29 08:51:42;;;;;;;6.30;3.65;;;15.00;66.50;;;;;;5016009;28;20519;-82
2021/10/29 08:54:08;;;;;;;4.97;3.30;;;15.00;66.60;;;;;;5032108;28;20073;-83
2021/10/29 08:56:35;;;;;;;5.72;3.88;;;15.00;66.70;;;;;;5030774;28;20037;-82
2021/10/29 08:59:32;;;;;;;6.45;3.83;;;15.00;66.40;;;;;;5033434;28;20115;-82
2021/10/29 09:04:46;;;;;;;7.13;4.05;;;15.10;66.60;;;;;;5039756;28;20089;-81
2021/10/29 09:32:43;;;;;;;8.50;2.80;;;15.20;66.60;;;;;;5018055;28;20080;-85
2021/10/29 09:35:12;;;;;;;6.43;3.17;;;15.20;66.70;;;;;;5023243;28;20112;-85
2021/10/29 09:37:59;;;;;;;5.65;3.40;;;15.20;66.70;;;;;;5025275;28;20033;-85
2021/10/29 09:41:03;;;;;;;9.05;3.60;;;15.30;66.90;;;;;;5020945;28;20104;-85
2021/10/29 09:44:19;;;;;;;8.32;3.55;;;15.30;66.80;;;;;;5023550;28;20038;-85
2021/10/29 09:49:50;;;;;;;17.65;4.03;;;15.30;67.50;;;;;;5004971;28;20313;-84
2021/10/29 09:52:37;;;;;;;8.48;3.53;;;15.30;67.80;;;;;;5021408;28;20091;-85
2021/10/29 09:57:33;;;;;;;7.72;3.83;;;15.30;68.10;;;;;;5020555;28;20033;-85
2021/10/29 10:00:04;;;;;;;8.30;4.05;;;15.30;68.20;;;;;;5020008;28;20044;-85
2021/10/29 10:02:42;;;;;;;6.80;3.88;;;15.30;68.40;;;;;;5023918;28;20029;-86
2021/10/29 10:05:09;;;;;;;7.50;4.20;;;15.30;67.40;;;;;;5020066;28;20148;-87
2021/10/29 10:07:38;;;;;;;8.50;3.92;;;15.30;67.00;;;;;;5009729;28;20163;-86
2021/10/29 10:10:11;;;;;;;7.90;4.03;;;15.20;66.90;;;;;;5019914;28;20590;-85
2021/10/29 10:12:41;;;;;;;7.07;3.67;;;15.20;67.30;;;;;;5020695;28;20676;-85
2021/10/29 10:15:09;;;;;;;9.77;4.10;;;15.20;67.50;;;;;;5020481;28;20049;-84
2021/10/29 10:17:35;;;;;;;5.78;3.78;;;15.20;67.20;;;;;;5006182;28;20083;-85
2021/10/29 10:20:04;;;;;;;6.88;3.85;;;15.20;67.20;;;;;;5021474;28;20050;-83
2021/10/29 10:22:35;;;;;;;6.60;3.55;;;15.10;67.00;;;;;;5019978;28;20041;-85
2021/10/29 10:25:10;;;;;;;5.75;3.42;;;15.10;66.70;;;;;;5020237;28;20040;-83
2021/10/29 10:42:26;;;;;;;6.40;3.10;;;15.00;66.30;;;;;;5019787;28;20037;-84
2021/10/29 10:45:33;;;;;;;7.70;3.42;;;15.00;66.20;;;;;;5007279;28;20056;-85
2021/10/29 10:47:53;;;;;;;9.23;3.13;;;15.00;66.00;;;;;;5018784;28;20129;-83
2021/10/29 10:50:30;;;;;;;7.80;3.13;;;15.00;65.80;;;;;;5008512;28;20030;-84
2021/10/29 10:53:24;;;;;;;4.47;2.85;;;15.00;66.00;;;;;;5021811;28;20128;-84
2021/10/29 10:59:14;;;;;;;6.30;3.53;;;15.00;65.90;;;;;;5020444;28;20043;-84
2021/10/29 11:07:10;;;;;;;5.72;2.65;;;15.00;66.00;;;;;;5019721;28;21105;-84
2021/10/29 11:12:34;;;;;;;4.75;2.95;;;15.00;66.10;;;;;;5020366;28;20087;-83
2021/10/29 11:15:27;;;;;;;4.38;2.70;;;15.00;66.20;;;;;;5021803;28;20025;-85
2021/10/29 11:18:13;;;;;;;4.97;2.50;;;15.00;66.20;;;;;;5022762;28;20045;-84
2021/10/29 11:20:40;;;;;;;5.40;2.75;;;15.00;66.30;;;;;;5026871;28;20025;-83
2021/10/29 11:23:18;;;;;;;4.10;2.50;;;15.00;66.30;;;;;;5024332;28;20033;-84
2021/10/29 11:25:47;;;;;;;5.38;2.67;;;15.00;66.40;;;;;;5024578;28;20037;-83
2021/10/29 11:28:13;;;;;;;6.45;2.75;;;15.00;66.30;;;;;;5013302;28;20034;-83
2021/10/29 11:30:43;;;;;;;5.43;2.45;;;15.00;66.20;;;;;;5028498;28;20025;-84
2021/10/29 11:33:10;;;;;;;5.90;2.92;;;15.00;66.30;;;;;;5024794;28;20038;-83
2021/10/29 11:35:36;;;;;;;6.00;2.72;;;15.00;66.30;;;;;;5025137;28;20033;-84
2021/10/29 11:38:05;;;;;;;7.63;2.58;;;15.00;66.20;;;;;;5024550;28;20531;-83
2021/10/29 11:40:31;;;;;;;4.82;2.65;;;15.00;66.20;;;;;;5006907;28;20078;-84
2021/10/29 11:42:57;;;;;;;5.68;1.98;;;15.00;66.40;;;;;;5023493;28;20408;-85
2021/10/29 11:45:36;;;;;;;3.83;2.20;;;15.00;66.50;;;;;;5009254;28;20492;-84
2021/10/29 11:48:03;;;;;;;4.88;2.22;;;15.00;66.60;;;;;;5024112;28;20115;-83
2021/10/29 11:50:29;;;;;;;4.93;2.33;;;15.00;66.60;;;;;;5027453;28;20037;-84
2021/10/29 11:52:59;;;;;;;4.40;2.30;;;15.00;66.70;;;;;;5025216;28;20033;-84
2021/10/29 11:55:36;;;;;;;7.38;2.17;;;15.00;66.80;;;;;;5023035;28;20073;-84
2021/10/29 11:58:12;;;;;;;4.78;2.08;;;15.00;67.00;;;;;;5007151;28;20923;-83
2021/10/29 12:00:56;;;;;;;7.70;2.70;;;15.00;67.20;;;;;;5011425;28;20041;-85
2021/10/29 12:09:30;;;;;;;6.22;2.00;;;15.00;68.30;;;;;;4942257;29;20051;-93
2021/10/29 12:12:13;;;;;;;4.57;1.88;;;15.00;68.20;;;;;;4937942;29;20035;-95
2021/10/29 12:14:43;;;;;;;3.35;1.95;;;15.00;68.00;;;;;;5035205;28;20244;-93
2021/10/29 12:19:59;;;;;;;7.38;2.42;;;15.00;68.00;;;;;;5036853;28;20037;-94
2021/10/29 12:25:06;;;;;;;7.65;2.20;;;15.00;68.10;;;;;;5033223;28;20036;-93
2021/10/29 12:27:41;;;;;;;5.13;1.55;;;14.90;68.30;;;;;;5032087;28;20567;-92
2021/10/29 12:30:38;;;;;;;1.85;1.55;;;14.90;68.40;;;;;;5037459;28;20029;-92
2021/10/29 13:01:35;;;;;;;5.95;1.92;;;14.80;69.60;;;;;;5058399;28;20047;-86
2021/10/29 13:04:05;;;;;;;4.28;2.10;;;14.70;69.70;;;;;;5051855;28;20044;-86
2021/10/29 13:06:35;;;;;;;6.53;2.08;;;14.70;69.80;;;;;;5058120;28;20013;-79
2021/10/29 13:09:11;;;;;;;7.45;2.65;;;14.70;70.00;;;;;;5031819;28;20053;-81
2021/10/29 13:11:43;;;;;;;7.20;2.50;;;14.70;70.00;;;;;;5049221;28;20038;-80
2021/10/29 13:14:12;;;;;;;6.13;2.40;;;14.60;70.10;;;;;;5047921;28;20030;-82
2021/10/29 13:16:38;;;;;;;6.53;2.60;;;14.70;70.40;;;;;;5047984;28;20036;-80
2021/10/29 13:19:27;;;;;;;13.52;2.53;;;14.60;70.50;;;;;;5031871;28;20041;-89
2021/10/29 13:51:24;;;;;;;5.03;2.53;;;14.50;72.20;;;;;;5032706;28;20120;-87
2021/10/29 14:31:01;;;;;;;6.32;3.00;;;14.40;73.40;;;;;;5034465;28;20037;-89
2021/10/29 14:33:32;;;;;;;6.28;2.88;;;14.40;73.60;;;;;;5025996;28;20128;-90
2021/10/29 14:35:59;;;;;;;4.07;2.50;;;14.40;73.60;;;;;;5025867;28;20411;-90
2021/10/29 14:38:52;;;;;;;6.07;2.72;;;14.40;73.70;;;;;;4999912;28;20053;-90
2021/10/29 14:41:26;;;;;;;7.75;3.40;;;14.40;73.80;;;;;;5035199;28;20045;-90
2021/10/29 14:43:58;;;;;;;4.88;2.90;;;14.40;73.90;;;;;;5034648;28;20496;-89
2021/10/29 14:46:52;;;;;;;4.40;3.20;;;14.40;73.90;;;;;;5034503;28;20042;-90
2021/10/29 14:49:44;;;;;;;9.77;3.03;;;14.40;74.00;;;;;;5014919;28;20029;-90
2021/10/29 15:06:23;;;;;;;8.93;4.28;;;14.40;74.20;;;;;;5036648;28;20033;-83
2021/10/29 15:15:12;;;;;;;9.57;4.70;;;14.40;74.20;;;;;;5029347;28;20523;-86
2021/10/29 15:49:35;;;;;;;9.60;6.03;;;14.40;74.00;;;;;;5028350;28;20038;-90
2021/10/29 15:51:54;;;;;;;10.63;5.88;;;14.40;73.90;;;;;;5024875;28;20128;-92
2021/10/29 15:54:21;;;;;;;10.93;6.20;;;14.40;73.80;;;;;;5026466;28;20208;-89
2021/10/29 15:56:53;;;;;;;7.80;5.93;;;14.40;73.80;;;;;;5026345;28;20039;-88
2021/10/29 16:02:11;;;;;;;7.07;5.88;;;14.50;73.70;;;;;;5008690;28;20085;-89
2021/10/29 16:18:20;;;;;;;10.13;6.60;;;14.40;73.90;;;;;;5033316;28;20141;-82
2021/10/29 16:20:46;;;;;;;8.13;6.22;;;14.40;73.80;;;;;;5024583;28;20128;-86
2021/10/29 16:23:12;;;;;;;10.43;6.50;;;14.40;73.80;;;;;;5021426;28;20531;-86
2021/10/29 16:25:58;;;;;;;10.80;6.20;;;14.40;73.80;;;;;;5021462;28;20029;-83
2021/10/29 16:28:30;;;;;;;11.20;6.75;;;14.40;73.80;;;;;;5021977;28;20034;-86
2021/10/29 16:30:57;;;;;;;10.43;6.65;;;14.40;73.80;;;;;;5023464;28;20084;-86
2021/10/29 16:33:32;;;;;;;10.38;6.72;;;14.40;73.70;;;;;;5022018;28;20083;-85
2021/10/29 16:35:59;;;;;;;8.45;6.70;;;14.40;73.70;;;;;;5005000;28;20041;-84
2021/10/29 16:38:25;;;;;;;9.18;6.20;;;14.40;73.70;;;;;;5021593;28;20033;-87
2021/10/29 16:40:52;;;;;;;8.45;6.43;;;14.40;73.60;;;;;;5023315;28;20037;-84
2021/10/29 16:43:18;;;;;;;10.43;6.80;;;14.40;73.60;;;;;;5031350;28;20042;-83
2021/10/29 16:45:46;;;;;;;9.95;6.93;;;14.50;73.60;;;;;;5025180;28;20041;-86
2021/10/29 16:48:14;;;;;;;8.73;6.18;;;14.50;73.50;;;;;;5029236;28;20155;-86
2021/10/29 16:50:40;;;;;;;11.48;6.30;;;14.50;73.50;;;;;;5016297;28;20033;-86
2021/10/29 16:53:07;;;;;;;11.32;6.35;;;14.40;73.50;;;;;;5007756;28;20493;-86
2021/10/29 16:55:33;;;;;;;9.50;6.35;;;14.40;73.40;;;;;;5025781;28;20092;-93
2021/10/29 16:57:59;;;;;;;10.70;5.82;;;14.40;73.30;;;;;;5006336;28;20539;-86
2021/10/29 17:00:25;;;;;;;9.85;5.68;;;14.40;73.20;;;;;;5023372;28;20037;-85
2021/10/29 17:02:51;;;;;;;7.18;5.70;;;14.50;73.20;;;;;;5023006;28;20052;-83
2021/10/29 17:05:18;;;;;;;7.90;5.13;;;14.50;73.80;;;;;;5010453;28;20169;-81
2021/10/29 17:07:44;;;;;;;7.65;5.05;;;14.50;73.30;;;;;;5009876;28;20040;-85
2021/10/29 17:10:12;;;;;;;7.43;5.40;;;14.60;73.80;;;;;;5024593;28;20075;-83
2021/10/29 17:12:40;;;;;;;6.72;4.93;;;14.60;73.60;;;;;;5026972;28;20546;-85
2021/10/29 17:15:09;;;;;;;5.88;5.00;;;14.60;73.80;;;;;;5017575;28;20029;-86
2021/10/29 17:17:35;;;;;;;9.32;4.90;;;14.60;72.90;;;;;;5033246;28;20493;-84
2021/10/29 17:20:03;;;;;;;10.23;5.18;;;14.60;72.60;;;;;;5036750;28;20044;-84
2021/10/29 17:22:30;;;;;;;9.43;5.03;;;14.70;72.40;;;;;;5031732;28;20125;-83
2021/10/29 17:24:56;;;;;;;6.50;4.90;;;14.70;72.30;;;;;;5026890;28;20021;-84
2021/10/29 17:27:22;;;;;;;5.45;4.22;;;14.70;72.10;;;;;;5029783;28;20026;-84
2021/10/29 17:29:48;;;;;;;8.05;5.00;;;14.70;72.00;;;;;;5028716;28;20037;-83
2021/10/29 17:32:15;;;;;;;6.75;5.10;;;14.70;71.90;;;;;;5034051;28;20041;-84
2021/10/29 17:34:47;;;;;;;7.18;5.55;;;14.70;71.90;;;;;;5031517;28;20063;-84
2021/10/29 17:37:17;;;;;;;6.68;4.72;;;14.70;71.80;;;;;;5033326;28;20037;-84
2021/10/29 17:39:45;;;;;;;7.43;5.07;;;14.80;71.80;;;;;;5012680;28;20034;-86
2021/10/29 17:42:12;;;;;;;9.65;5.03;;;14.80;71.80;;;;;;5030536;28;20033;-85
2021/10/29 17:44:39;;;;;;;6.65;4.68;;;14.80;71.80;;;;;;5030060;28;20041;-87
2021/10/29 17:47:06;;;;;;;7.25;4.53;;;14.80;71.80;;;;;;5015545;28;20079;-86
2021/10/29 17:49:33;;;;;;;9.57;5.10;;;14.80;71.70;;;;;;5029561;28;20120;-84
2021/10/29 17:52:02;;;;;;;7.00;5.50;;;14.80;71.70;;;;;;5028108;28;20030;-85
2021/10/29 17:54:36;;;;;;;7.30;4.57;;;14.80;71.60;;;;;;5031946;28;20398;-87
2021/10/29 17:57:07;;;;;;;6.22;4.45;;;14.80;71.60;;;;;;5012727;28;20377;-92